Time;durP1;ratioP1;P1;durP2;ratioP2;P2;SDS_P1;SDS_P2;PMS_P1;PMS_P2;Temp;Humidity;BMP_temperature;BMP_pressure;BME280_temperature;BME280_humidity;BME280_pressure;Samples;Min_cycle;Max_cycle;Signal;HPM_P1;HPM_P2
2024/01/10 00:01:16;;;;;;;9.20;7.33;;;;;;;;;;4999425;28;20536;-83
2024/01/10 00:03:48;;;;;;;11.50;6.80;;;;;;;;;;4998949;28;20559;-83
2024/01/10 00:06:15;;;;;;;10.63;6.90;;;;;;;;;;5000348;28;20484;-85
2024/01/10 00:08:47;;;;;;;7.37;5.80;;;;;;;;;;4985486;28;20484;-84
2024/01/10 00:11:18;;;;;;;9.13;6.40;;;;;;;;;;5006161;28;20436;-82
2024/01/10 00:13:49;;;;;;;7.07;6.30;;;;;;;;;;5009596;28;20469;-84
2024/01/10 00:16:27;;;;;;;8.47;6.90;;;;;;;;;;5001526;28;20539;-84
2024/01/10 00:19:04;;;;;;;10.20;5.53;;;;;;;;;;5004609;28;20536;-83
2024/01/10 00:21:36;;;;;;;9.90;6.03;;;;;;;;;;4983924;28;20457;-81
2024/01/10 00:24:12;;;;;;;9.60;6.70;;;;;;;;;;5001020;28;20492;-84
2024/01/10 00:26:42;;;;;;;12.50;6.70;;;;;;;;;;4994875;28;20483;-81
2024/01/10 00:29:22;;;;;;;8.80;6.17;;;;;;;;;;4975502;28;20481;-84
2024/01/10 00:31:53;;;;;;;8.20;6.00;;;;;;;;;;4997961;28;20466;-82
2024/01/10 00:34:31;;;;;;;14.00;6.60;;;;;;;;;;5001650;28;20458;-82
2024/01/10 00:37:02;;;;;;;9.40;7.00;;;;;;;;;;4989108;28;20478;-83
2024/01/10 00:39:35;;;;;;;10.67;6.90;;;;;;;;;;4987354;28;20452;-87
2024/01/10 00:42:06;;;;;;;9.37;5.87;;;;;;;;;;5006702;28;20478;-82
2024/01/10 00:44:39;;;;;;;8.70;5.97;;;;;;;;;;5007676;28;20584;-86
2024/01/10 00:47:12;;;;;;;8.23;6.60;;;;;;;;;;5012744;28;20482;-82
2024/01/10 00:49:42;;;;;;;8.23;6.13;;;;;;;;;;5006722;28;20479;-83
2024/01/10 00:52:12;;;;;;;9.53;6.93;;;;;;;;;;5003045;28;20549;-83
2024/01/10 00:54:46;;;;;;;8.10;5.97;;;;;;;;;;4998148;28;20450;-82
2024/01/10 00:57:18;;;;;;;9.63;6.27;;;;;;;;;;5008132;28;20949;-82
2024/01/10 00:59:46;;;;;;;8.87;6.23;;;;;;;;;;4999254;28;20902;-82
2024/01/10 01:02:18;;;;;;;10.80;6.10;;;;;;;;;;5000085;28;21020;-84
2024/01/10 01:04:54;;;;;;;10.53;5.90;;;;;;;;;;4998304;28;20490;-84
2024/01/10 01:07:23;;;;;;;7.07;5.70;;;;;;;;;;4999212;28;20482;-85
2024/01/10 01:09:53;;;;;;;7.73;6.40;;;;;;;;;;4998124;28;20471;-83
2024/01/10 01:12:24;;;;;;;8.50;5.30;;;;;;;;;;4997482;28;20469;-84
2024/01/10 01:14:58;;;;;;;9.10;5.40;;;;;;;;;;4981227;28;20468;-84
2024/01/10 01:17:36;;;;;;;7.07;4.97;;;;;;;;;;4992559;28;20871;-83
2024/01/10 01:20:04;;;;;;;7.20;5.43;;;;;;;;;;4979274;28;20553;-83
2024/01/10 01:22:33;;;;;;;7.70;5.50;;;;;;;;;;4994363;28;21026;-82
2024/01/10 01:25:04;;;;;;;8.47;5.23;;;;;;;;;;4996846;28;20485;-84
2024/01/10 01:27:48;;;;;;;9.77;5.10;;;;;;;;;;5009576;28;20467;-83
2024/01/10 01:30:19;;;;;;;10.03;6.20;;;;;;;;;;5011387;28;20533;-85
2024/01/10 01:32:46;;;;;;;12.40;5.50;;;;;;;;;;4983523;28;21170;-83
2024/01/10 01:35:21;;;;;;;5.70;4.60;;;;;;;;;;5006783;28;20451;-84
2024/01/10 01:37:53;;;;;;;6.60;4.60;;;;;;;;;;5011437;28;20764;-79
2024/01/10 01:40:24;;;;;;;7.43;5.10;;;;;;;;;;5006344;28;20507;-84
2024/01/10 01:42:59;;;;;;;7.30;5.87;;;;;;;;;;5000531;28;20963;-80
2024/01/10 01:45:26;;;;;;;9.47;5.00;;;;;;;;;;4999687;28;20481;-83
2024/01/10 01:47:56;;;;;;;10.53;5.20;;;;;;;;;;4999018;28;20839;-82
2024/01/10 01:50:24;;;;;;;8.43;5.10;;;;;;;;;;5000532;28;20439;-84
2024/01/10 01:52:51;;;;;;;7.73;4.60;;;;;;;;;;4982970;28;21164;-84
2024/01/10 01:55:19;;;;;;;9.60;5.30;;;;;;;;;;4995987;28;20457;-82
2024/01/10 01:57:54;;;;;;;7.17;5.07;;;;;;;;;;4997756;28;20544;-83
2024/01/10 02:00:24;;;;;;;7.80;4.63;;;;;;;;;;4993476;28;21439;-83
2024/01/10 02:02:53;;;;;;;7.07;5.03;;;;;;;;;;5006927;28;20494;-83
2024/01/10 02:05:25;;;;;;;4.90;4.00;;;;;;;;;;5017468;28;20487;-83
2024/01/10 02:07:52;;;;;;;6.57;4.90;;;;;;;;;;5019681;28;20500;-82
2024/01/10 02:10:22;;;;;;;6.43;5.57;;;;;;;;;;5019153;28;20464;-84
2024/01/10 02:12:50;;;;;;;8.20;4.93;;;;;;;;;;5030244;28;20471;-82
2024/01/10 02:15:18;;;;;;;9.63;5.70;;;;;;;;;;5036463;28;20450;-82
2024/01/10 02:17:45;;;;;;;7.17;4.57;;;;;;;;;;5036614;28;20512;-81
2024/01/10 02:20:13;;;;;;;8.20;5.30;;;;;;;;;;5028334;28;20475;-81
2024/01/10 02:22:46;;;;;;;6.27;4.63;;;;;;;;;;5027484;28;20442;-82
2024/01/10 02:25:16;;;;;;;8.37;5.57;;;;;;;;;;5023154;28;20692;-84
2024/01/10 02:27:46;;;;;;;5.70;4.47;;;;;;;;;;5023141;28;20582;-84
2024/01/10 02:30:14;;;;;;;8.03;6.00;;;;;;;;;;5007247;28;20459;-84
2024/01/10 02:39:54;;;;;;;7.50;4.00;;;;;;;;;;5021309;28;20439;-85
2024/01/10 02:42:21;;;;;;;5.77;4.17;;;;;;;;;;5025262;28;20478;-84
2024/01/10 02:45:13;;;;;;;6.73;4.33;;;;;;;;;;5030663;28;20517;-82
2024/01/10 03:02:26;;;;;;;6.40;4.87;;;;;;;;;;4878742;29;20547;-82
2024/01/10 03:05:18;;;;;;;4.97;4.20;;;;;;;;;;4930274;29;20558;-82
2024/01/10 03:08:11;;;;;;;6.67;4.30;;;;;;;;;;4954281;28;20496;-83
2024/01/10 03:10:50;;;;;;;5.67;4.70;;;;;;;;;;5026724;28;20472;-82
2024/01/10 03:13:29;;;;;;;9.87;4.83;;;;;;;;;;5038475;28;20463;-85
2024/01/10 03:16:02;;;;;;;5.47;4.23;;;;;;;;;;5010647;28;20484;-83
2024/01/10 03:18:33;;;;;;;10.60;4.70;;;;;;;;;;5025530;28;20574;-83
2024/01/10 03:21:15;;;;;;;8.90;5.93;;;;;;;;;;5027185;28;20519;-82
2024/01/10 03:24:26;;;;;;;7.73;5.03;;;;;;;;;;5037974;28;20446;-82
2024/01/10 03:26:55;;;;;;;9.90;6.20;;;;;;;;;;5040159;28;20478;-83
2024/01/10 03:36:15;;;;;;;9.57;6.00;;;;;;;;;;5010949;28;20450;-81
2024/01/10 03:38:59;;;;;;;11.13;6.83;;;;;;;;;;5036403;28;20457;-83
2024/01/10 03:41:40;;;;;;;11.17;6.50;;;;;;;;;;5037793;28;20462;-80
2024/01/10 03:44:11;;;;;;;10.90;6.10;;;;;;;;;;5021830;28;20532;-82
2024/01/10 03:46:50;;;;;;;;;;;;;;;;;;;;;
2024/01/10 03:49:38;;;;;;;10.00;6.50;;;;;;;;;;5039311;28;20450;-83
2024/01/10 03:52:30;;;;;;;9.17;6.10;;;;;;;;;;5027333;28;20452;-82
2024/01/10 03:55:02;;;;;;;10.13;6.97;;;;;;;;;;5033702;28;20526;-84
2024/01/10 03:57:33;;;;;;;11.83;7.00;;;;;;;;;;5030659;28;21010;-80
2024/01/10 04:00:16;;;;;;;12.90;7.70;;;;;;;;;;5007622;28;20462;-82
2024/01/10 04:02:46;;;;;;;13.10;6.60;;;;;;;;;;5022998;28;20460;-84
2024/01/10 04:05:20;;;;;;;13.80;6.77;;;;;;;;;;5005344;28;21779;-84
2024/01/10 04:07:51;;;;;;;9.37;7.40;;;;;;;;;;5025082;28;20466;-83
2024/01/10 04:10:21;;;;;;;11.83;7.47;;;;;;;;;;5035630;28;20474;-80
2024/01/10 04:12:53;;;;;;;11.37;7.00;;;;;;;;;;5022924;28;20456;-82
2024/01/10 04:15:20;;;;;;;8.97;6.97;;;;;;;;;;5036363;28;20494;-84
2024/01/10 04:17:51;;;;;;;9.60;6.43;;;;;;;;;;5033119;28;20570;-80
2024/01/10 04:20:23;;;;;;;7.77;6.10;;;;;;;;;;5036290;28;20459;-82
2024/01/10 04:22:51;;;;;;;13.40;8.43;;;;;;;;;;5017090;28;20462;-83
2024/01/10 04:25:18;;;;;;;8.00;6.10;;;;;;;;;;5020721;28;20474;-82
2024/01/10 04:27:50;;;;;;;7.80;5.73;;;;;;;;;;5034790;28;20482;-82
2024/01/10 04:30:23;;;;;;;12.20;7.33;;;;;;;;;;5033467;28;20529;-82
2024/01/10 04:32:51;;;;;;;8.70;6.03;;;;;;;;;;5026621;28;20532;-84
2024/01/10 04:35:21;;;;;;;7.70;5.97;;;;;;;;;;5034891;28;20446;-83
2024/01/10 04:38:01;;;;;;;9.60;6.10;;;;;;;;;;5011333;28;20525;-84
2024/01/10 04:40:32;;;;;;;8.77;5.70;;;;;;;;;;5019622;28;20550;-82
2024/01/10 04:43:03;;;;;;;13.67;6.50;;;;;;;;;;5002091;28;20442;-84
2024/01/10 04:45:32;;;;;;;9.33;6.30;;;;;;;;;;5019202;28;20482;-83
2024/01/10 04:48:04;;;;;;;9.90;6.60;;;;;;;;;;5020905;28;20458;-84
2024/01/10 04:50:36;;;;;;;9.00;6.37;;;;;;;;;;5017909;28;20458;-83
2024/01/10 04:53:03;;;;;;;11.30;7.57;;;;;;;;;;5018764;28;20473;-83
2024/01/10 04:55:31;;;;;;;8.83;6.27;;;;;;;;;;5017207;28;20484;-81
2024/01/10 04:57:59;;;;;;;11.33;6.63;;;;;;;;;;5003513;28;20469;-82
2024/01/10 05:00:28;;;;;;;10.13;6.37;;;;;;;;;;5008492;28;20480;-82
2024/01/10 05:02:55;;;;;;;7.63;6.93;;;;;;;;;;5031030;28;20458;-81
2024/01/10 05:05:23;;;;;;;8.87;5.97;;;;;;;;;;5027231;28;20477;-84
2024/01/10 05:07:51;;;;;;;8.97;6.83;;;;;;;;;;5019090;28;20481;-83
2024/01/10 05:10:19;;;;;;;7.80;5.70;;;;;;;;;;5024362;28;20445;-83
2024/01/10 05:12:46;;;;;;;9.80;6.67;;;;;;;;;;5024325;28;20453;-82
2024/01/10 05:15:14;;;;;;;7.10;5.40;;;;;;;;;;5009475;28;20462;-84
2024/01/10 05:17:42;;;;;;;10.50;6.43;;;;;;;;;;5022797;28;20495;-82
2024/01/10 05:20:10;;;;;;;10.93;6.60;;;;;;;;;;5006544;28;21079;-83
2024/01/10 05:22:37;;;;;;;7.50;5.50;;;;;;;;;;5037262;28;20507;-82
2024/01/10 05:25:05;;;;;;;7.50;5.80;;;;;;;;;;5020729;28;20491;-84
2024/01/10 05:27:32;;;;;;;10.17;5.57;;;;;;;;;;5033724;28;20521;-81
2024/01/10 05:29:59;;;;;;;12.50;6.63;;;;;;;;;;5023955;28;20462;-81
2024/01/10 05:32:27;;;;;;;11.80;7.30;;;;;;;;;;5029026;28;20465;-82
2024/01/10 05:34:55;;;;;;;8.70;6.30;;;;;;;;;;5021902;28;20487;-82
2024/01/10 05:37:22;;;;;;;11.70;7.83;;;;;;;;;;5008919;28;20478;-84
2024/01/10 05:39:49;;;;;;;11.97;6.10;;;;;;;;;;5022674;28;20470;-84
2024/01/10 05:42:17;;;;;;;13.53;8.00;;;;;;;;;;5022905;28;20466;-83
2024/01/10 05:44:44;;;;;;;11.77;6.77;;;;;;;;;;5030428;28;20468;-83
2024/01/10 05:47:12;;;;;;;11.20;6.30;;;;;;;;;;5027724;28;22730;-82
2024/01/10 05:49:39;;;;;;;10.17;7.53;;;;;;;;;;5010141;28;20472;-84
2024/01/10 05:52:06;;;;;;;10.70;7.50;;;;;;;;;;5007306;28;20456;-82
2024/01/10 05:54:33;;;;;;;13.53;7.20;;;;;;;;;;5004835;28;20467;-85
2024/01/10 05:57:02;;;;;;;8.60;6.10;;;;;;;;;;5005847;28;20464;-82
2024/01/10 05:59:30;;;;;;;11.73;8.27;;;;;;;;;;5018594;28;20473;-81
2024/01/10 06:01:58;;;;;;;9.03;6.90;;;;;;;;;;5005636;28;20470;-82
2024/01/10 06:04:27;;;;;;;10.33;7.27;;;;;;;;;;5021782;28;20473;-84
2024/01/10 06:06:55;;;;;;;10.03;6.77;;;;;;;;;;5004037;28;20510;-84
2024/01/10 06:09:22;;;;;;;7.33;5.70;;;;;;;;;;5020720;28;20975;-84
2024/01/10 06:11:50;;;;;;;10.60;7.17;;;;;;;;;;5019619;28;21642;-83
2024/01/10 06:14:17;;;;;;;10.50;6.80;;;;;;;;;;5032172;28;20443;-82
2024/01/10 06:16:44;;;;;;;11.17;6.43;;;;;;;;;;5025363;28;20597;-85
2024/01/10 06:19:12;;;;;;;8.70;7.00;;;;;;;;;;5019805;28;20480;-82
2024/01/10 06:21:54;;;;;;;9.90;6.73;;;;;;;;;;5017032;28;20458;-83
2024/01/10 06:24:23;;;;;;;10.80;7.70;;;;;;;;;;5019747;28;20458;-84
2024/01/10 06:26:52;;;;;;;14.57;8.67;;;;;;;;;;5019262;28;20465;-82
2024/01/10 06:29:33;;;;;;;13.20;7.73;;;;;;;;;;5008670;28;20477;-81
2024/01/10 06:32:01;;;;;;;13.60;7.80;;;;;;;;;;5018181;28;20463;-83
2024/01/10 06:34:33;;;;;;;11.87;7.00;;;;;;;;;;5018767;28;20492;-84
2024/01/10 06:37:11;;;;;;;12.03;7.40;;;;;;;;;;5019108;28;20469;-81
2024/01/10 06:39:44;;;;;;;10.30;7.60;;;;;;;;;;5002308;28;20474;-83
2024/01/10 06:42:15;;;;;;;8.77;5.67;;;;;;;;;;5020997;28;20456;-82
2024/01/10 06:44:45;;;;;;;10.50;7.07;;;;;;;;;;5019781;28;20981;-82
2024/01/10 06:47:30;;;;;;;9.80;6.33;;;;;;;;;;5017242;28;22013;-85
2024/01/10 06:50:05;;;;;;;10.73;8.17;;;;;;;;;;5015213;28;20455;-83
2024/01/10 06:52:35;;;;;;;8.30;6.60;;;;;;;;;;5024338;28;20454;-84
2024/01/10 06:55:18;;;;;;;8.97;6.70;;;;;;;;;;5003933;28;20541;-81
2024/01/10 06:58:08;;;;;;;9.63;6.23;;;;;;;;;;5022791;28;20473;-82
2024/01/10 07:00:38;;;;;;;9.80;6.17;;;;;;;;;;5023316;28;20498;-86
2024/01/10 07:03:08;;;;;;;9.20;6.93;;;;;;;;;;5034730;28;20466;-87
2024/01/10 07:05:47;;;;;;;9.97;7.10;;;;;;;;;;5024966;28;20470;-86
2024/01/10 07:08:24;;;;;;;10.70;6.50;;;;;;;;;;5018442;28;20917;-83
2024/01/10 07:10:56;;;;;;;9.53;5.80;;;;;;;;;;5019338;28;20461;-85
2024/01/10 07:17:03;;;;;;;9.80;7.07;;;;;;;;;;5021407;28;20497;-85
2024/01/10 07:19:35;;;;;;;9.30;5.90;;;;;;;;;;5019886;28;20519;-85
2024/01/10 07:22:10;;;;;;;11.50;6.90;;;;;;;;;;5005936;28;20542;-83
2024/01/10 07:24:47;;;;;;;8.20;5.63;;;;;;;;;;5016370;28;20457;-83
2024/01/10 07:27:18;;;;;;;11.60;6.70;;;;;;;;;;5019661;28;20589;-85
2024/01/10 07:29:48;;;;;;;11.07;6.57;;;;;;;;;;5006130;28;20450;-85
2024/01/10 07:32:15;;;;;;;10.07;6.50;;;;;;;;;;5022371;28;20450;-87
2024/01/10 07:34:44;;;;;;;12.80;7.40;;;;;;;;;;5022026;28;20454;-86
2024/01/10 07:37:16;;;;;;;14.23;7.50;;;;;;;;;;5018000;28;20704;-84
2024/01/10 07:40:10;;;;;;;9.97;6.70;;;;;;;;;;5022339;28;20530;-85
2024/01/10 07:42:43;;;;;;;14.97;8.23;;;;;;;;;;5003220;28;20565;-84
2024/01/10 07:48:49;;;;;;;8.77;6.57;;;;;;;;;;5029229;28;20555;-85
2024/01/10 07:51:39;;;;;;;11.27;6.20;;;;;;;;;;5018503;28;20437;-83
2024/01/10 07:57:51;;;;;;;9.10;6.23;;;;;;;;;;5009305;28;20519;-84
2024/01/10 08:03:43;;;;;;;12.03;6.17;;;;;;;;;;4948462;28;20541;-83
2024/01/10 08:06:24;;;;;;;12.97;7.60;;;;;;;;;;4960583;28;20503;-84
2024/01/10 08:09:10;;;;;;;8.80;5.90;;;;;;;;;;4967626;28;20472;-85
2024/01/10 08:11:41;;;;;;;10.77;6.60;;;;;;;;;;4953457;28;20453;-83
2024/01/10 08:14:17;;;;;;;10.87;7.07;;;;;;;;;;4959557;28;20440;-83
2024/01/10 08:16:54;;;;;;;14.00;7.47;;;;;;;;;;4975476;28;20472;-83
2024/01/10 08:19:35;;;;;;;11.57;6.30;;;;;;;;;;4955872;28;20460;-82
2024/01/10 08:22:17;;;;;;;11.93;7.03;;;;;;;;;;4959978;28;20429;-85
2024/01/10 08:24:48;;;;;;;14.07;6.73;;;;;;;;;;4973096;28;20463;-83
2024/01/10 08:27:31;;;;;;;11.10;6.20;;;;;;;;;;4967210;28;20504;-82
2024/01/10 08:30:18;;;;;;;11.83;6.67;;;;;;;;;;4989476;28;20466;-82
2024/01/10 08:33:04;;;;;;;10.40;6.23;;;;;;;;;;5024462;28;20480;-84
2024/01/10 08:38:51;;;;;;;8.33;6.10;;;;;;;;;;5029692;28;21085;-84
2024/01/10 08:41:43;;;;;;;;;;;;;;;;;;;;;
2024/01/10 08:45:10;;;;;;;;;;;;;;;;;;;;;
2024/01/10 08:48:06;;;;;;;11.90;6.03;;;;;;;;;;4974674;28;20472;-83
2024/01/10 08:51:00;;;;;;;10.90;6.87;;;;;;;;;;5021890;28;20446;-84
2024/01/10 08:53:35;;;;;;;10.30;5.70;;;;;;;;;;5012276;28;20555;-84
2024/01/10 08:56:29;;;;;;;13.20;6.00;;;;;;;;;;4999887;28;20526;-85
2024/01/10 08:59:01;;;;;;;10.50;6.80;;;;;;;;;;5024684;28;20485;-81
2024/01/10 09:01:43;;;;;;;13.80;6.80;;;;;;;;;;5021405;28;20436;-83
2024/01/10 09:04:11;;;;;;;11.77;6.33;;;;;;;;;;5032877;28;20453;-84
2024/01/10 09:06:51;;;;;;;10.90;6.30;;;;;;;;;;5030149;28;20462;-86
2024/01/10 09:09:24;;;;;;;13.53;6.90;;;;;;;;;;5017682;28;20521;-86
2024/01/10 09:12:19;;;;;;;7.90;5.87;;;;;;;;;;5014768;28;20429;-85
2024/01/10 09:15:08;;;;;;;9.37;6.40;;;;;;;;;;5026584;28;20468;-85
2024/01/10 09:17:35;;;;;;;10.67;6.67;;;;;;;;;;5009690;28;20507;-84
2024/01/10 09:20:17;;;;;;;12.50;6.50;;;;;;;;;;5021974;28;20462;-86
2024/01/10 09:23:08;;;;;;;12.17;7.50;;;;;;;;;;5028061;28;20983;-84
2024/01/10 09:25:36;;;;;;;11.50;6.40;;;;;;;;;;5008208;28;20442;-85
2024/01/10 09:28:23;;;;;;;9.23;6.30;;;;;;;;;;5024366;28;20493;-85
2024/01/10 09:31:03;;;;;;;12.37;6.63;;;;;;;;;;5004241;28;20516;-85
2024/01/10 09:33:34;;;;;;;13.07;7.70;;;;;;;;;;5019789;28;20462;-87
2024/01/10 09:36:12;;;;;;;16.10;7.30;;;;;;;;;;5026897;28;20485;-83
2024/01/10 09:38:47;;;;;;;10.80;6.57;;;;;;;;;;5021236;28;20485;-84
2024/01/10 09:41:24;;;;;;;12.10;7.13;;;;;;;;;;5023624;28;20674;-85
2024/01/10 09:43:59;;;;;;;13.43;6.27;;;;;;;;;;5024942;28;20441;-84
2024/01/10 09:46:35;;;;;;;15.60;8.03;;;;;;;;;;5043406;28;20449;-84
2024/01/10 09:49:13;;;;;;;15.93;8.13;;;;;;;;;;5044831;28;20463;-82
2024/01/10 09:51:56;;;;;;;17.20;8.90;;;;;;;;;;5038551;28;20453;-83
2024/01/10 09:54:25;;;;;;;13.87;6.47;;;;;;;;;;5012554;28;20468;-85
2024/01/10 09:56:56;;;;;;;10.20;5.83;;;;;;;;;;5028029;28;20489;-85
2024/01/10 09:59:43;;;;;;;14.20;8.00;;;;;;;;;;5014156;28;20464;-84
2024/01/10 10:02:22;;;;;;;16.63;8.43;;;;;;;;;;5025455;28;20546;-84
2024/01/10 10:05:05;;;;;;;13.77;7.17;;;;;;;;;;5026627;28;20545;-86
2024/01/10 10:07:48;;;;;;;9.90;7.57;;;;;;;;;;5028935;28;20474;-85
2024/01/10 10:10:16;;;;;;;12.43;6.90;;;;;;;;;;5028361;28;20521;-83
2024/01/10 10:12:48;;;;;;;13.43;7.80;;;;;;;;;;5013922;28;20470;-85
2024/01/10 10:15:23;;;;;;;17.67;6.73;;;;;;;;;;5028717;28;20459;-85
2024/01/10 10:17:53;;;;;;;12.73;6.80;;;;;;;;;;5036449;28;20809;-85
2024/01/10 10:20:31;;;;;;;17.13;7.87;;;;;;;;;;5013700;28;20473;-85
2024/01/10 10:23:03;;;;;;;15.80;8.93;;;;;;;;;;5025056;28;20493;-87
2024/01/10 10:25:48;;;;;;;11.70;7.47;;;;;;;;;;5030372;28;20458;-84
2024/01/10 10:28:16;;;;;;;19.70;8.60;;;;;;;;;;5026105;28;20649;-85
2024/01/10 10:30:59;;;;;;;11.90;8.37;;;;;;;;;;5028720;28;20984;-85
2024/01/10 10:33:33;;;;;;;15.00;8.57;;;;;;;;;;5017502;28;20487;-84
2024/01/10 10:36:04;;;;;;;12.73;7.47;;;;;;;;;;5014165;28;20501;-84
2024/01/10 10:38:36;;;;;;;15.80;8.23;;;;;;;;;;5018436;28;20989;-85
2024/01/10 10:41:15;;;;;;;11.97;7.03;;;;;;;;;;5028279;28;20458;-86
2024/01/10 10:43:47;;;;;;;14.27;8.10;;;;;;;;;;5033149;28;20713;-84
2024/01/10 10:46:17;;;;;;;15.07;7.60;;;;;;;;;;5029953;28;20497;-84
2024/01/10 10:48:44;;;;;;;10.90;6.93;;;;;;;;;;5014594;28;20992;-86
2024/01/10 10:51:28;;;;;;;19.10;8.37;;;;;;;;;;5013108;28;20458;-85
2024/01/10 10:54:03;;;;;;;11.87;7.97;;;;;;;;;;5009247;28;20458;-85
2024/01/10 10:56:34;;;;;;;13.87;9.10;;;;;;;;;;5009672;28;20579;-87
2024/01/10 10:59:08;;;;;;;14.17;8.13;;;;;;;;;;5025423;28;20459;-84
2024/01/10 11:01:37;;;;;;;21.17;9.33;;;;;;;;;;5028024;28;20465;-87
2024/01/10 11:04:06;;;;;;;15.27;9.57;;;;;;;;;;5021739;28;20511;-85
2024/01/10 11:06:34;;;;;;;14.10;8.30;;;;;;;;;;5026474;28;20553;-83
2024/01/10 11:09:12;;;;;;;13.00;8.23;;;;;;;;;;5024103;28;20490;-84
2024/01/10 11:11:58;;;;;;;14.83;7.33;;;;;;;;;;4996510;28;20463;-83
2024/01/10 11:14:27;;;;;;;12.40;7.60;;;;;;;;;;5010385;28;20463;-83
2024/01/10 11:17:18;;;;;;;16.00;8.63;;;;;;;;;;5025958;28;20494;-87
2024/01/10 11:19:57;;;;;;;17.17;8.27;;;;;;;;;;5027238;28;20459;-86
2024/01/10 11:22:28;;;;;;;16.00;10.17;;;;;;;;;;5008268;28;20462;-86
2024/01/10 11:24:55;;;;;;;14.93;7.90;;;;;;;;;;5006735;28;20464;-85
2024/01/10 11:27:27;;;;;;;18.10;9.30;;;;;;;;;;5024862;28;20480;-87
2024/01/10 11:29:56;;;;;;;12.60;7.40;;;;;;;;;;5024006;28;20472;-86
2024/01/10 11:32:24;;;;;;;14.37;8.67;;;;;;;;;;5030184;28;20456;-85
2024/01/10 11:34:55;;;;;;;12.90;8.50;;;;;;;;;;5029008;28;20496;-82
2024/01/10 11:37:29;;;;;;;14.53;9.50;;;;;;;;;;5039240;28;20499;-86
2024/01/10 11:39:56;;;;;;;12.80;8.90;;;;;;;;;;5026079;28;20447;-84
2024/01/10 11:42:34;;;;;;;17.47;8.80;;;;;;;;;;5030262;28;20521;-83
2024/01/10 11:48:29;;;;;;;14.77;8.23;;;;;;;;;;4957217;28;20967;-86
2024/01/10 11:50:58;;;;;;;14.90;7.80;;;;;;;;;;5007833;28;20468;-83
2024/01/10 11:53:42;;;;;;;16.70;8.33;;;;;;;;;;5025097;28;20480;-87
2024/01/10 11:56:15;;;;;;;12.30;8.43;;;;;;;;;;5021967;28;21005;-85
2024/01/10 11:59:04;;;;;;;12.90;8.30;;;;;;;;;;5004951;28;20479;-87
2024/01/10 12:01:36;;;;;;;12.93;7.83;;;;;;;;;;5022379;28;20450;-85
2024/01/10 12:04:04;;;;;;;14.47;9.23;;;;;;;;;;5024565;28;20438;-85
2024/01/10 12:06:40;;;;;;;19.37;9.93;;;;;;;;;;5024237;28;20465;-84
2024/01/10 12:09:12;;;;;;;20.17;9.60;;;;;;;;;;5024350;28;20668;-84
2024/01/10 12:11:41;;;;;;;17.50;8.93;;;;;;;;;;5028780;28;20559;-86
2024/01/10 12:14:10;;;;;;;17.90;9.87;;;;;;;;;;5010130;28;20500;-86
2024/01/10 12:16:38;;;;;;;15.30;9.40;;;;;;;;;;5009281;28;20485;-85
2024/01/10 12:19:05;;;;;;;11.90;7.83;;;;;;;;;;5023162;28;20520;-87
2024/01/10 12:21:34;;;;;;;17.73;9.00;;;;;;;;;;5023520;28;20447;-84
2024/01/10 12:24:05;;;;;;;13.77;9.43;;;;;;;;;;5024025;28;20452;-85
2024/01/10 12:26:33;;;;;;;15.10;8.50;;;;;;;;;;5023547;28;20448;-84
2024/01/10 12:29:02;;;;;;;16.67;9.53;;;;;;;;;;5024071;28;20507;-88
2024/01/10 12:34:22;;;;;;;18.00;10.20;;;;;;;;;;5028403;28;20522;-84
2024/01/10 12:36:49;;;;;;;15.13;9.13;;;;;;;;;;5030107;28;20507;-85
2024/01/10 12:39:17;;;;;;;16.53;9.07;;;;;;;;;;5031199;28;20457;-85
2024/01/10 12:41:45;;;;;;;12.00;8.50;;;;;;;;;;5022676;28;20456;-85
2024/01/10 12:44:14;;;;;;;17.67;8.73;;;;;;;;;;5025378;28;20465;-87
2024/01/10 12:46:52;;;;;;;13.30;8.33;;;;;;;;;;5017622;28;20488;-85
2024/01/10 12:49:22;;;;;;;18.63;8.40;;;;;;;;;;5035066;28;20451;-86
2024/01/10 12:51:50;;;;;;;18.00;8.90;;;;;;;;;;5022142;28;20494;-85
2024/01/10 12:54:19;;;;;;;16.33;9.13;;;;;;;;;;5032815;28;20473;-85
2024/01/10 12:56:50;;;;;;;17.83;9.90;;;;;;;;;;5031544;28;20482;-87
2024/01/10 12:59:17;;;;;;;13.47;9.47;;;;;;;;;;5029091;28;20565;-83
2024/01/10 13:01:46;;;;;;;14.20;9.13;;;;;;;;;;5012186;28;20489;-83
2024/01/10 13:04:14;;;;;;;17.50;9.77;;;;;;;;;;5020459;28;20465;-83
2024/01/10 13:06:43;;;;;;;12.93;9.57;;;;;;;;;;5006401;28;20487;-86
2024/01/10 13:09:10;;;;;;;15.20;9.70;;;;;;;;;;5020150;28;20980;-87
2024/01/10 13:11:45;;;;;;;15.37;9.80;;;;;;;;;;5022169;28;20469;-85
2024/01/10 13:14:18;;;;;;;18.67;10.30;;;;;;;;;;5004762;28;20464;-82
2024/01/10 13:16:45;;;;;;;14.10;9.40;;;;;;;;;;5022831;28;20474;-83
2024/01/10 13:19:20;;;;;;;17.07;9.77;;;;;;;;;;5021707;28;20453;-86
2024/01/10 13:22:01;;;;;;;14.17;10.20;;;;;;;;;;5019574;28;20512;-83
2024/01/10 13:24:34;;;;;;;18.13;9.80;;;;;;;;;;5020458;28;20457;-86
2024/01/10 13:27:10;;;;;;;18.80;10.00;;;;;;;;;;5028179;28;20450;-82
2024/01/10 13:29:43;;;;;;;21.17;9.77;;;;;;;;;;5030095;28;20452;-84
2024/01/10 13:32:25;;;;;;;14.50;9.80;;;;;;;;;;5028565;28;20884;-86
2024/01/10 13:35:01;;;;;;;17.53;9.13;;;;;;;;;;5010759;28;20455;-84
2024/01/10 13:37:35;;;;;;;14.90;9.90;;;;;;;;;;5025684;28;20490;-84
2024/01/10 13:40:06;;;;;;;20.93;9.27;;;;;;;;;;5024245;28;20452;-87
2024/01/10 13:42:34;;;;;;;19.00;9.77;;;;;;;;;;5019679;28;20487;-86
2024/01/10 13:45:13;;;;;;;14.50;9.53;;;;;;;;;;5011556;28;20465;-85
2024/01/10 13:47:44;;;;;;;19.93;11.00;;;;;;;;;;5023961;28;20480;-87
2024/01/10 13:50:11;;;;;;;13.10;6.70;;;;;;;;;;5003813;28;20467;-83
2024/01/10 13:52:43;;;;;;;18.00;9.30;;;;;;;;;;5024836;28;20462;-84
2024/01/10 13:55:14;;;;;;;16.63;9.70;;;;;;;;;;5021865;28;20456;-83
2024/01/10 13:58:12;;;;;;;13.33;8.33;;;;;;;;;;5024729;28;20643;-86
2024/01/10 14:00:48;;;;;;;16.60;9.57;;;;;;;;;;5024308;28;20449;-84
2024/01/10 14:03:50;;;;;;;14.57;9.80;;;;;;;;;;5031261;28;20446;-85
2024/01/10 14:06:19;;;;;;;16.30;9.30;;;;;;;;;;5025139;28;20469;-87
2024/01/10 14:09:02;;;;;;;15.13;9.20;;;;;;;;;;5015564;28;20485;-87
2024/01/10 14:11:39;;;;;;;16.33;10.17;;;;;;;;;;5015393;28;20454;-87
2024/01/10 14:14:15;;;;;;;15.00;9.37;;;;;;;;;;5016551;28;20458;-88
2024/01/10 14:16:50;;;;;;;19.60;9.40;;;;;;;;;;5026414;28;20773;-86
2024/01/10 14:19:20;;;;;;;18.33;9.17;;;;;;;;;;5025975;28;20553;-85
2024/01/10 14:21:48;;;;;;;21.43;9.20;;;;;;;;;;5031649;28;20459;-86
2024/01/10 14:24:15;;;;;;;14.50;9.27;;;;;;;;;;5027335;28;20594;-84
2024/01/10 14:26:43;;;;;;;16.67;9.23;;;;;;;;;;5025612;28;20467;-86
2024/01/10 14:29:34;;;;;;;16.70;10.30;;;;;;;;;;5060383;23;21214;-83
2024/01/10 14:32:01;;;;;;;14.13;8.20;;;;;;;;;;5038188;28;20443;-85
2024/01/10 14:34:40;;;;;;;16.00;10.07;;;;;;;;;;5029183;28;20437;-86
2024/01/10 14:37:08;;;;;;;17.50;9.70;;;;;;;;;;5028445;28;22051;-86
2024/01/10 14:39:38;;;;;;;19.40;10.70;;;;;;;;;;5006570;28;20510;-85
2024/01/10 14:42:09;;;;;;;14.07;9.03;;;;;;;;;;5027374;28;20457;-85
2024/01/10 14:44:36;;;;;;;14.20;8.93;;;;;;;;;;5027688;28;21198;-87
2024/01/10 14:47:04;;;;;;;15.70;9.30;;;;;;;;;;5006180;28;21766;-85
2024/01/10 14:49:36;;;;;;;21.57;10.87;;;;;;;;;;5033884;28;20453;-86
2024/01/10 14:52:03;;;;;;;18.70;9.93;;;;;;;;;;5021327;28;20539;-85
2024/01/10 14:54:30;;;;;;;15.73;9.70;;;;;;;;;;5014216;28;20576;-85
2024/01/10 14:56:57;;;;;;;13.80;9.63;;;;;;;;;;5031336;28;20565;-86
2024/01/10 14:59:24;;;;;;;16.37;9.83;;;;;;;;;;5007769;28;20472;-87
2024/01/10 15:01:58;;;;;;;16.57;9.70;;;;;;;;;;5028496;28;20549;-87
2024/01/10 15:04:25;;;;;;;14.30;9.53;;;;;;;;;;5007678;28;20517;-86
2024/01/10 15:06:53;;;;;;;16.77;8.80;;;;;;;;;;5009459;28;20486;-86
2024/01/10 15:09:20;;;;;;;17.20;9.70;;;;;;;;;;5028504;28;20442;-86
2024/01/10 15:11:48;;;;;;;17.77;10.57;;;;;;;;;;5014068;28;20442;-86
2024/01/10 15:14:16;;;;;;;17.53;9.40;;;;;;;;;;5018936;28;20454;-87
2024/01/10 15:16:44;;;;;;;17.13;8.77;;;;;;;;;;5028366;28;20465;-85
2024/01/10 15:19:11;;;;;;;16.47;9.87;;;;;;;;;;5003276;28;20468;-85
2024/01/10 15:21:38;;;;;;;16.50;9.53;;;;;;;;;;5020283;28;21014;-85
2024/01/10 15:24:08;;;;;;;16.70;9.57;;;;;;;;;;5021384;28;20460;-86
2024/01/10 15:26:36;;;;;;;16.97;10.37;;;;;;;;;;5018503;28;20982;-86
2024/01/10 15:29:04;;;;;;;15.50;9.63;;;;;;;;;;5001290;28;20561;-87
2024/01/10 15:31:32;;;;;;;13.97;9.57;;;;;;;;;;5019500;28;20456;-85
2024/01/10 15:33:59;;;;;;;15.00;9.37;;;;;;;;;;5024211;28;20482;-84
2024/01/10 15:36:27;;;;;;;15.50;10.07;;;;;;;;;;5007982;28;20506;-86
2024/01/10 15:38:55;;;;;;;22.57;10.43;;;;;;;;;;5007470;28;20493;-86
2024/01/10 15:41:22;;;;;;;14.07;8.93;;;;;;;;;;5033979;28;20596;-86
2024/01/10 15:43:50;;;;;;;18.97;9.60;;;;;;;;;;5014328;28;20999;-86
2024/01/10 15:46:21;;;;;;;13.73;9.20;;;;;;;;;;5027983;28;20453;-87
2024/01/10 15:48:48;;;;;;;18.90;8.83;;;;;;;;;;5012019;28;20480;-85
2024/01/10 15:51:16;;;;;;;14.57;9.00;;;;;;;;;;5012106;28;20478;-86
2024/01/10 15:53:45;;;;;;;15.00;9.67;;;;;;;;;;5012614;28;20454;-88
2024/01/10 15:56:13;;;;;;;17.40;9.80;;;;;;;;;;5030753;28;20542;-87
2024/01/10 15:58:40;;;;;;;16.47;9.77;;;;;;;;;;5028475;28;20495;-87
2024/01/10 16:01:24;;;;;;;18.47;10.40;;;;;;;;;;5029858;28;20490;-87
2024/01/10 16:03:54;;;;;;;13.90;8.87;;;;;;;;;;5017743;28;20448;-88